Time;durP1;ratioP1;P1;durP2;ratioP2;P2;SDS_P1;SDS_P2;PMS_P1;PMS_P2;Temp;Humidity;BMP_temperature;BMP_pressure;BME280_temperature;BME280_humidity;BME280_pressure;Samples;Min_cycle;Max_cycle;Signal;HPM_P1;HPM_P2
2023/06/11 00:00:37;;;;;;;6.15;4.60;;;;;;;;;;10093194;28;20082;-66
2023/06/11 00:05:36;;;;;;;5.38;4.25;;;;;;;;;;10101730;28;20116;-66
2023/06/11 00:10:32;;;;;;;7.50;4.32;;;;;;;;;;10101840;28;20042;-67
2023/06/11 00:15:29;;;;;;;5.47;4.43;;;;;;;;;;10094417;28;20094;-67
2023/06/11 00:20:25;;;;;;;5.25;4.75;;;;;;;;;;10097914;28;20452;-68
2023/06/11 00:25:21;;;;;;;6.68;4.20;;;;;;;;;;10102662;28;20050;-67
2023/06/11 00:30:20;;;;;;;8.38;4.22;;;;;;;;;;10100435;28;20047;-68
2023/06/11 00:35:17;;;;;;;8.55;4.40;;;;;;;;;;10100052;28;20550;-68
2023/06/11 00:40:13;;;;;;;5.43;4.40;;;;;;;;;;10104217;28;20051;-68
2023/06/11 00:45:11;;;;;;;6.63;4.40;;;;;;;;;;10102843;28;20062;-68
2023/06/11 00:50:08;;;;;;;7.90;4.88;;;;;;;;;;10104065;28;20092;-68
2023/06/11 00:55:05;;;;;;;5.28;4.45;;;;;;;;;;10106594;28;20043;-67
2023/06/11 01:00:03;;;;;;;8.82;4.28;;;;;;;;;;10108738;28;20043;-70
2023/06/11 01:05:01;;;;;;;7.07;4.32;;;;;;;;;;10098615;28;20545;-66
2023/06/11 01:10:04;;;;;;;6.82;4.60;;;;;;;;;;10107171;28;20641;-66
2023/06/11 01:15:01;;;;;;;7.70;4.60;;;;;;;;;;10096108;28;20047;-66
2023/06/11 01:20:08;;;;;;;6.22;4.00;;;;;;;;;;10098247;28;20046;-67
2023/06/11 01:25:10;;;;;;;6.60;4.25;;;;;;;;;;10108488;28;20046;-68
2023/06/11 01:30:09;;;;;;;5.78;4.50;;;;;;;;;;10092246;28;20074;-68
2023/06/11 01:35:06;;;;;;;5.05;4.40;;;;;;;;;;10093362;28;20055;-68
2023/06/11 01:40:02;;;;;;;5.63;4.28;;;;;;;;;;10102514;28;20043;-68
2023/06/11 01:44:58;;;;;;;6.45;4.32;;;;;;;;;;10103918;28;20051;-66
2023/06/11 01:49:55;;;;;;;7.18;4.30;;;;;;;;;;10095557;28;20134;-67
2023/06/11 01:54:51;;;;;;;6.32;4.60;;;;;;;;;;10102789;28;20050;-66
2023/06/11 01:59:47;;;;;;;5.60;4.50;;;;;;;;;;10110559;28;20673;-67
2023/06/11 02:04:44;;;;;;;4.85;4.00;;;;;;;;;;10102943;28;20047;-66
2023/06/11 02:09:41;;;;;;;6.88;4.22;;;;;;;;;;10098972;28;20042;-67
2023/06/11 02:14:37;;;;;;;7.68;4.28;;;;;;;;;;10097591;28;20058;-67
2023/06/11 02:19:33;;;;;;;7.88;4.40;;;;;;;;;;10099082;28;20402;-68
2023/06/11 02:24:31;;;;;;;6.10;4.03;;;;;;;;;;10102466;28;20105;-70
2023/06/11 02:29:28;;;;;;;6.45;4.10;;;;;;;;;;10101748;28;20093;-66
2023/06/11 02:34:24;;;;;;;7.00;4.45;;;;;;;;;;10106025;28;20221;-68
2023/06/11 02:39:20;;;;;;;7.47;4.20;;;;;;;;;;10101053;28;20083;-69
2023/06/11 02:44:17;;;;;;;5.10;4.60;;;;;;;;;;10092019;28;20050;-68
2023/06/11 02:49:13;;;;;;;7.43;4.50;;;;;;;;;;10096301;28;21312;-70
2023/06/11 02:54:09;;;;;;;8.88;4.68;;;;;;;;;;10085775;28;20057;-66
2023/06/11 02:59:06;;;;;;;7.28;4.63;;;;;;;;;;10100180;28;20050;-68
2023/06/11 03:04:02;;;;;;;8.02;4.65;;;;;;;;;;10097653;28;20074;-68
2023/06/11 03:08:59;;;;;;;5.60;4.28;;;;;;;;;;10097122;28;20047;-67
2023/06/11 03:13:55;;;;;;;5.75;4.40;;;;;;;;;;10092433;28;20051;-68
2023/06/11 03:18:51;;;;;;;6.90;4.78;;;;;;;;;;10090573;28;20118;-67
2023/06/11 03:23:48;;;;;;;5.90;4.55;;;;;;;;;;10078558;28;20457;-68
2023/06/11 03:28:44;;;;;;;6.45;4.18;;;;;;;;;;10063331;28;20043;-67
2023/06/11 03:33:40;;;;;;;6.80;3.90;;;;;;;;;;10056871;28;20064;-68
2023/06/11 03:38:37;;;;;;;5.82;3.88;;;;;;;;;;10067024;28;20047;-67
2023/06/11 03:43:33;;;;;;;8.57;4.43;;;;;;;;;;10089974;28;20057;-67
2023/06/11 03:48:29;;;;;;;9.48;4.35;;;;;;;;;;10103825;28;20105;-70
2023/06/11 03:53:26;;;;;;;8.10;4.55;;;;;;;;;;10100563;28;20560;-71
2023/06/11 03:58:22;;;;;;;6.65;3.70;;;;;;;;;;10094215;28;20038;-68
2023/06/11 04:03:19;;;;;;;5.50;3.90;;;;;;;;;;10106201;28;20535;-68
2023/06/11 04:08:15;;;;;;;10.60;4.57;;;;;;;;;;10105962;28;20056;-67
2023/06/11 04:13:11;;;;;;;10.68;3.92;;;;;;;;;;10112814;28;20043;-70
2023/06/11 04:18:09;;;;;;;7.30;3.95;;;;;;;;;;10104962;28;20042;-70
2023/06/11 04:23:06;;;;;;;6.68;3.80;;;;;;;;;;10111010;28;20062;-70
2023/06/11 04:28:03;;;;;;;5.47;3.85;;;;;;;;;;10102654;28;20042;-70
2023/06/11 04:33:03;;;;;;;9.98;4.25;;;;;;;;;;10107005;28;20055;-66
2023/06/11 04:38:03;;;;;;;8.70;4.07;;;;;;;;;;10088628;28;20097;-69
2023/06/11 04:43:00;;;;;;;7.40;4.07;;;;;;;;;;10084027;28;20081;-68
2023/06/11 04:47:56;;;;;;;4.88;3.80;;;;;;;;;;10074176;28;20649;-68
2023/06/11 04:52:53;;;;;;;7.35;4.40;;;;;;;;;;10075366;28;20043;-67
2023/06/11 04:57:50;;;;;;;6.75;4.35;;;;;;;;;;10070515;28;20580;-70
2023/06/11 05:02:46;;;;;;;7.22;4.10;;;;;;;;;;10061726;28;20043;-69
2023/06/11 05:07:43;;;;;;;8.95;4.70;;;;;;;;;;10070077;28;20058;-68
2023/06/11 05:12:39;;;;;;;7.25;4.20;;;;;;;;;;10088391;28;20051;-69
2023/06/11 05:17:35;;;;;;;5.72;4.40;;;;;;;;;;10081556;28;20077;-69
2023/06/11 05:22:32;;;;;;;6.93;4.55;;;;;;;;;;10099613;28;20047;-69
2023/06/11 05:27:29;;;;;;;8.65;4.47;;;;;;;;;;10097157;28;20066;-69
2023/06/11 05:32:25;;;;;;;5.75;4.50;;;;;;;;;;10094999;28;20513;-69
2023/06/11 05:37:22;;;;;;;5.65;4.32;;;;;;;;;;10091403;28;20046;-69
2023/06/11 05:42:18;;;;;;;7.50;4.35;;;;;;;;;;10095251;28;20497;-69
2023/06/11 05:47:14;;;;;;;5.07;3.95;;;;;;;;;;10100664;28;20051;-69
2023/06/11 05:52:11;;;;;;;6.55;4.20;;;;;;;;;;10105143;28;20888;-66
2023/06/11 05:57:16;;;;;;;6.53;4.22;;;;;;;;;;10110565;28;20063;-66
2023/06/11 06:02:13;;;;;;;8.68;4.40;;;;;;;;;;10102841;28;20055;-69
2023/06/11 06:07:11;;;;;;;7.55;4.53;;;;;;;;;;10108884;28;20057;-69
2023/06/11 06:12:07;;;;;;;7.22;4.45;;;;;;;;;;10094961;28;20035;-69
2023/06/11 06:17:04;;;;;;;12.00;4.28;;;;;;;;;;10100717;28;20057;-69
2023/06/11 06:22:01;;;;;;;6.97;4.47;;;;;;;;;;10103224;28;20424;-69
2023/06/11 06:27:00;;;;;;;5.97;4.40;;;;;;;;;;10101771;28;20070;-68
2023/06/11 06:31:56;;;;;;;4.93;4.15;;;;;;;;;;10108323;28;20089;-68
2023/06/11 06:36:53;;;;;;;6.53;4.38;;;;;;;;;;10090997;28;20109;-66
2023/06/11 06:41:49;;;;;;;5.63;4.10;;;;;;;;;;10094510;28;20059;-66
2023/06/11 06:46:45;;;;;;;8.50;4.20;;;;;;;;;;10106312;28;20046;-66
2023/06/11 06:51:42;;;;;;;6.95;4.28;;;;;;;;;;10106756;28;20497;-66
2023/06/11 06:56:38;;;;;;;7.00;4.53;;;;;;;;;;10093622;28;20047;-67
2023/06/11 07:01:35;;;;;;;6.07;4.57;;;;;;;;;;10096241;28;20050;-67
2023/06/11 07:06:32;;;;;;;7.88;4.53;;;;;;;;;;10107543;28;20493;-68
2023/06/11 07:11:28;;;;;;;5.95;4.65;;;;;;;;;;10103983;28;20524;-67
2023/06/11 07:16:25;;;;;;;6.68;4.30;;;;;;;;;;10108072;28;20509;-67
2023/06/11 07:21:23;;;;;;;8.00;4.97;;;;;;;;;;10100117;28;20046;-66
2023/06/11 07:26:19;;;;;;;8.02;4.85;;;;;;;;;;10093246;28;20047;-67
2023/06/11 07:31:15;;;;;;;6.80;4.82;;;;;;;;;;10096478;28;20626;-67
2023/06/11 07:36:12;;;;;;;7.85;5.43;;;;;;;;;;10094973;28;20508;-67
2023/06/11 07:41:09;;;;;;;7.57;4.93;;;;;;;;;;10101682;28;20102;-68
2023/06/11 07:46:05;;;;;;;7.05;5.43;;;;;;;;;;10100857;28;20077;-68
2023/06/11 07:51:01;;;;;;;7.97;4.72;;;;;;;;;;10100125;28;20097;-68
2023/06/11 07:55:58;;;;;;;6.15;4.85;;;;;;;;;;10102297;28;20097;-68
2023/06/11 08:00:54;;;;;;;8.07;4.95;;;;;;;;;;10104987;28;20043;-67
2023/06/11 08:05:53;;;;;;;6.63;4.93;;;;;;;;;;10100816;28;20046;-68
2023/06/11 08:10:50;;;;;;;7.40;4.90;;;;;;;;;;10099792;28;20043;-68
2023/06/11 08:15:47;;;;;;;6.78;4.97;;;;;;;;;;10095254;28;20078;-68
2023/06/11 08:20:43;;;;;;;7.28;4.80;;;;;;;;;;10095881;28;20118;-66
2023/06/11 08:25:40;;;;;;;5.60;4.93;;;;;;;;;;10098355;28;20074;-66
2023/06/11 08:30:37;;;;;;;10.32;5.15;;;;;;;;;;10097525;28;20053;-66
2023/06/11 08:35:33;;;;;;;8.63;5.00;;;;;;;;;;10095837;28;20051;-66
2023/06/11 08:40:30;;;;;;;8.13;5.43;;;;;;;;;;10107533;28;20480;-66
2023/06/11 08:45:26;;;;;;;6.38;5.10;;;;;;;;;;10102590;28;20425;-71
2023/06/11 08:50:27;;;;;;;7.15;5.00;;;;;;;;;;10100068;28;20050;-71
2023/06/11 08:55:25;;;;;;;9.60;5.50;;;;;;;;;;10095293;28;20043;-70
2023/06/11 09:00:24;;;;;;;7.90;5.25;;;;;;;;;;10090132;28;20054;-70
2023/06/11 09:05:21;;;;;;;6.13;4.88;;;;;;;;;;10086468;28;20389;-70
2023/06/11 09:10:18;;;;;;;6.93;4.75;;;;;;;;;;10087879;28;20051;-69
2023/06/11 09:15:15;;;;;;;6.47;4.78;;;;;;;;;;10088748;28;20117;-71
2023/06/11 09:20:15;;;;;;;8.52;4.95;;;;;;;;;;10074460;28;20055;-71
2023/06/11 09:25:16;;;;;;;7.75;5.07;;;;;;;;;;10092528;28;20133;-71
2023/06/11 09:30:19;;;;;;;9.82;5.07;;;;;;;;;;10090063;28;20550;-71
2023/06/11 09:35:16;;;;;;;9.65;5.63;;;;;;;;;;10103533;28;20046;-71
2023/06/11 09:40:18;;;;;;;5.88;5.18;;;;;;;;;;10103317;28;20055;-70
2023/06/11 09:45:20;;;;;;;6.68;4.82;;;;;;;;;;10102226;28;20059;-71
2023/06/11 09:50:17;;;;;;;5.32;4.35;;;;;;;;;;10101785;28;20126;-70
2023/06/11 09:55:14;;;;;;;6.63;4.95;;;;;;;;;;10080827;28;20078;-70
2023/06/11 10:00:12;;;;;;;8.90;5.45;;;;;;;;;;10083474;28;20445;-71
2023/06/11 10:05:10;;;;;;;8.15;5.10;;;;;;;;;;10072382;28;20371;-70
2023/06/11 10:10:08;;;;;;;10.43;5.20;;;;;;;;;;10100706;28;20090;-71
2023/06/11 10:15:12;;;;;;;5.65;4.95;;;;;;;;;;10099822;28;20130;-71
2023/06/11 10:20:16;;;;;;;6.47;5.88;;;;;;;;;;10107899;28;20101;-71
2023/06/11 10:25:13;;;;;;;6.93;5.13;;;;;;;;;;10107747;28;20501;-71
2023/06/11 10:30:10;;;;;;;7.10;5.85;;;;;;;;;;10105853;28;20137;-71
2023/06/11 10:35:12;;;;;;;8.13;5.20;;;;;;;;;;10083927;28;20050;-70
2023/06/11 10:40:09;;;;;;;9.07;5.88;;;;;;;;;;10096898;28;20042;-70
2023/06/11 10:45:10;;;;;;;8.98;5.97;;;;;;;;;;10099417;28;20137;-70
2023/06/11 10:50:07;;;;;;;;;;;;;;;;;;10105062;28;20051;-70
2023/06/11 10:55:08;;;;;;;6.25;5.30;;;;;;;;;;10097066;28;19996;-71
2023/06/11 11:00:07;;;;;;;9.77;5.22;;;;;;;;;;10101219;28;20054;-70
2023/06/11 11:05:09;;;;;;;7.83;5.57;;;;;;;;;;10093116;28;20058;-70
2023/06/11 11:10:07;;;;;;;7.75;6.50;;;;;;;;;;10094333;28;20061;-71
2023/06/11 11:15:03;;;;;;;6.38;5.72;;;;;;;;;;10096385;28;20046;-71
2023/06/11 11:20:00;;;;;;;7.57;5.43;;;;;;;;;;10082150;28;20043;-70
2023/06/11 11:25:00;;;;;;;6.18;5.07;;;;;;;;;;10097538;28;20038;-70
2023/06/11 11:29:58;;;;;;;9.73;6.20;;;;;;;;;;10092692;28;20058;-70
2023/06/11 11:35:00;;;;;;;5.93;5.00;;;;;;;;;;10095978;28;20138;-70
2023/06/11 11:40:07;;;;;;;6.72;5.97;;;;;;;;;;10093498;28;20105;-70
2023/06/11 11:45:04;;;;;;;6.00;5.40;;;;;;;;;;10091056;28;20135;-71
2023/06/11 11:50:10;;;;;;;5.97;5.47;;;;;;;;;;10105683;28;20061;-70
2023/06/11 11:55:09;;;;;;;5.95;5.43;;;;;;;;;;10093351;28;20074;-68
2023/06/11 12:00:06;;;;;;;8.63;7.82;;;;;;;;;;10099661;28;20081;-70
2023/06/11 12:05:03;;;;;;;9.48;5.88;;;;;;;;;;10098967;28;20102;-70
2023/06/11 12:09:59;;;;;;;9.50;5.40;;;;;;;;;;10100555;28;20521;-70
2023/06/11 12:14:59;;;;;;;6.60;5.43;;;;;;;;;;10098776;28;20050;-71
2023/06/11 12:19:55;;;;;;;6.28;5.78;;;;;;;;;;10109939;28;20079;-71
2023/06/11 12:24:51;;;;;;;7.53;5.78;;;;;;;;;;10106802;28;20047;-71
2023/06/11 12:29:53;;;;;;;6.90;5.30;;;;;;;;;;10107644;28;20050;-72
2023/06/11 12:34:49;;;;;;;5.60;5.10;;;;;;;;;;10093629;28;20078;-72
2023/06/11 12:39:46;;;;;;;6.75;5.00;;;;;;;;;;10084762;28;21236;-72
2023/06/11 12:44:45;;;;;;;5.97;5.05;;;;;;;;;;10099502;28;20043;-72
2023/06/11 12:49:41;;;;;;;7.15;5.57;;;;;;;;;;10091803;28;20518;-72
2023/06/11 12:54:38;;;;;;;8.95;8.15;;;;;;;;;;10095029;28;20106;-72
2023/06/11 12:59:35;;;;;;;6.00;5.40;;;;;;;;;;10076440;28;20047;-71
2023/06/11 13:04:32;;;;;;;5.50;5.00;;;;;;;;;;10072615;28;20082;-71
2023/06/11 13:09:28;;;;;;;7.18;5.68;;;;;;;;;;10067451;28;20077;-71
2023/06/11 13:14:24;;;;;;;5.72;5.13;;;;;;;;;;10050884;28;20075;-71
2023/06/11 13:19:21;;;;;;;7.82;5.40;;;;;;;;;;10070517;28;20054;-71
2023/06/11 13:24:18;;;;;;;7.10;5.70;;;;;;;;;;10062082;28;20058;-72
2023/06/11 13:29:14;;;;;;;7.15;5.70;;;;;;;;;;10069128;28;20090;-73
2023/06/11 13:34:11;;;;;;;9.35;6.53;;;;;;;;;;10063175;28;20786;-72
2023/06/11 13:39:07;;;;;;;6.45;5.85;;;;;;;;;;10070729;28;20374;-72
2023/06/11 13:44:04;;;;;;;6.75;5.40;;;;;;;;;;10084278;28;20043;-72
2023/06/11 13:49:03;;;;;;;6.68;5.95;;;;;;;;;;10061676;28;20062;-73
2023/06/11 13:54:00;;;;;;;6.57;5.97;;;;;;;;;;10066554;28;20489;-72
2023/06/11 13:58:56;;;;;;;7.05;5.60;;;;;;;;;;10068273;28;20718;-73
2023/06/11 14:03:52;;;;;;;6.57;5.63;;;;;;;;;;10065316;28;20402;-72
2023/06/11 14:08:49;;;;;;;6.78;4.93;;;;;;;;;;10070881;28;20062;-73
2023/06/11 14:13:45;;;;;;;8.52;5.38;;;;;;;;;;10064076;28;20047;-73
2023/06/11 14:18:42;;;;;;;6.50;5.03;;;;;;;;;;10062626;28;20048;-73
2023/06/11 14:23:38;;;;;;;8.02;6.05;;;;;;;;;;10065562;28;20071;-72
2023/06/11 14:28:35;;;;;;;13.18;5.25;;;;;;;;;;10058939;28;20147;-71
2023/06/11 14:33:31;;;;;;;7.85;6.10;;;;;;;;;;10041692;28;20059;-72
2023/06/11 14:38:28;;;;;;;8.95;5.60;;;;;;;;;;10064859;28;20498;-72
2023/06/11 14:43:24;;;;;;;5.22;4.72;;;;;;;;;;10059299;28;21169;-72
2023/06/11 14:48:20;;;;;;;7.78;6.30;;;;;;;;;;10067326;28;20110;-72
2023/06/11 14:53:17;;;;;;;8.23;6.30;;;;;;;;;;10070728;28;20054;-72
2023/06/11 14:58:13;;;;;;;9.52;7.53;;;;;;;;;;10064576;28;20490;-71
2023/06/11 15:03:11;;;;;;;7.30;5.25;;;;;;;;;;10060923;28;20070;-71
2023/06/11 15:08:08;;;;;;;18.10;6.00;;;;;;;;;;10068410;28;20043;-71
2023/06/11 15:13:05;;;;;;;10.68;7.55;;;;;;;;;;10053986;28;20069;-72
2023/06/11 15:18:01;;;;;;;7.30;4.78;;;;;;;;;;10076955;28;20564;-71
2023/06/11 15:22:57;;;;;;;7.15;5.38;;;;;;;;;;10062807;28;20138;-71
2023/06/11 15:27:54;;;;;;;8.32;5.05;;;;;;;;;;10058434;28;20039;-72
2023/06/11 15:32:50;;;;;;;9.55;6.80;;;;;;;;;;10063324;28;20055;-72
2023/06/11 15:37:47;;;;;;;5.35;4.80;;;;;;;;;;10062344;28;20082;-72
2023/06/11 15:42:43;;;;;;;6.57;4.57;;;;;;;;;;10066903;28;20043;-72
2023/06/11 15:47:39;;;;;;;6.65;5.05;;;;;;;;;;10063961;28;20046;-72
2023/06/11 15:52:36;;;;;;;8.90;5.10;;;;;;;;;;10058511;28;20047;-73
2023/06/11 15:57:32;;;;;;;16.65;8.75;;;;;;;;;;10068965;28;20044;-72
2023/06/11 16:02:29;;;;;;;7.00;5.60;;;;;;;;;;10072923;28;20433;-72
2023/06/11 16:07:25;;;;;;;11.80;6.43;;;;;;;;;;10077764;28;20094;-71
2023/06/11 16:12:22;;;;;;;6.05;5.40;;;;;;;;;;10055323;28;20525;-71
2023/06/11 16:17:19;;;;;;;6.95;4.90;;;;;;;;;;10063867;28;20098;-71
2023/06/11 16:22:15;;;;;;;5.57;5.05;;;;;;;;;;10067619;28;20713;-73
2023/06/11 16:27:12;;;;;;;10.20;5.40;;;;;;;;;;10066933;28;20054;-72
2023/06/11 16:32:11;;;;;;;6.68;6.07;;;;;;;;;;10072892;28;20495;-70
2023/06/11 16:37:07;;;;;;;6.93;4.57;;;;;;;;;;10089002;28;20049;-74
2023/06/11 16:42:06;;;;;;;7.13;5.35;;;;;;;;;;10106770;28;20043;-71
2023/06/11 16:47:03;;;;;;;12.40;5.78;;;;;;;;;;10106637;28;20489;-71
2023/06/11 16:52:03;;;;;;;8.00;5.15;;;;;;;;;;10108540;28;20046;-72
2023/06/11 16:57:00;;;;;;;7.35;5.18;;;;;;;;;;10097736;28;20094;-72
2023/06/11 17:01:56;;;;;;;12.18;6.88;;;;;;;;;;10103291;28;20046;-71
2023/06/11 17:06:52;;;;;;;7.13;6.22;;;;;;;;;;10107203;28;20109;-73
2023/06/11 17:11:49;;;;;;;9.75;5.38;;;;;;;;;;10097772;28;20079;-71
2023/06/11 17:16:45;;;;;;;10.75;7.22;;;;;;;;;;10089916;28;20051;-73
2023/06/11 17:21:42;;;;;;;7.88;6.53;;;;;;;;;;10081196;28;20066;-71
2023/06/11 17:26:41;;;;;;;10.25;5.28;;;;;;;;;;10106719;28;20461;-72
2023/06/11 17:31:37;;;;;;;19.35;12.07;;;;;;;;;;10103436;28;20714;-72
2023/06/11 17:36:34;;;;;;;8.13;5.45;;;;;;;;;;10090735;28;20087;-73
2023/06/11 17:41:30;;;;;;;10.90;5.32;;;;;;;;;;10096947;28;20047;-73
2023/06/11 17:46:26;;;;;;;8.18;5.13;;;;;;;;;;10095448;28;20468;-73
2023/06/11 17:51:23;;;;;;;5.43;4.93;;;;;;;;;;10092138;28;20051;-73
2023/06/11 17:56:19;;;;;;;7.63;5.03;;;;;;;;;;10086294;28;20077;-73
2023/06/11 18:01:16;;;;;;;6.53;5.30;;;;;;;;;;10090590;28;20043;-73
2023/06/11 18:06:12;;;;;;;11.55;5.32;;;;;;;;;;10101364;28;20433;-73
2023/06/11 18:11:12;;;;;;;7.47;6.15;;;;;;;;;;10072622;28;20174;-73
2023/06/11 18:16:08;;;;;;;7.38;4.88;;;;;;;;;;10098829;28;20075;-73
2023/06/11 18:21:05;;;;;;;9.68;5.07;;;;;;;;;;10097785;28;20053;-74
2023/06/11 18:26:01;;;;;;;8.50;5.50;;;;;;;;;;10102373;28;20055;-75
2023/06/11 18:30:57;;;;;;;9.07;5.20;;;;;;;;;;10099136;28;20038;-74
2023/06/11 18:35:54;;;;;;;10.18;4.85;;;;;;;;;;10094952;28;20043;-74
2023/06/11 18:40:51;;;;;;;10.18;4.85;;;;;;;;;;10094844;28;20047;-75
2023/06/11 18:45:47;;;;;;;8.30;4.95;;;;;;;;;;10096092;28;20066;-74
2023/06/11 18:50:44;;;;;;;7.63;5.22;;;;;;;;;;10082033;28;20047;-74
2023/06/11 18:55:40;;;;;;;9.57;5.35;;;;;;;;;;10066697;29;20567;-74
2023/06/11 19:00:36;;;;;;;8.18;5.00;;;;;;;;;;10064989;28;20082;-72
2023/06/11 19:05:33;;;;;;;9.30;5.45;;;;;;;;;;10062417;28;20043;-74
2023/06/11 19:10:30;;;;;;;7.82;5.47;;;;;;;;;;10063422;28;20043;-74
2023/06/11 19:15:26;;;;;;;9.90;5.20;;;;;;;;;;10063926;28;20723;-74
2023/06/11 19:20:26;;;;;;;9.25;5.82;;;;;;;;;;10053027;28;20117;-74
2023/06/11 19:25:23;;;;;;;7.15;5.47;;;;;;;;;;10062565;28;20083;-74
2023/06/11 19:30:19;;;;;;;8.30;5.68;;;;;;;;;;10062634;28;20047;-74
2023/06/11 19:35:15;;;;;;;8.77;5.43;;;;;;;;;;10057790;28;20490;-74
2023/06/11 19:40:12;;;;;;;11.40;5.40;;;;;;;;;;10061018;28;20048;-73
2023/06/11 19:45:09;;;;;;;8.45;5.10;;;;;;;;;;10053811;28;20054;-74
2023/06/11 19:50:06;;;;;;;6.53;4.93;;;;;;;;;;10060159;28;20106;-73
2023/06/11 19:55:05;;;;;;;10.00;6.15;;;;;;;;;;10061615;28;20166;-74
2023/06/11 20:00:03;;;;;;;12.98;6.03;;;;;;;;;;10052941;28;20310;-70
2023/06/11 20:04:59;;;;;;;7.10;5.10;;;;;;;;;;10075036;28;20079;-69
2023/06/11 20:09:56;;;;;;;9.48;4.55;;;;;;;;;;10060649;28;20054;-70
2023/06/11 20:14:52;;;;;;;6.95;5.25;;;;;;;;;;10059782;28;20055;-70
2023/06/11 20:19:48;;;;;;;8.63;5.57;;;;;;;;;;10057241;28;20047;-70
2023/06/11 20:24:45;;;;;;;7.78;5.47;;;;;;;;;;10059787;28;20047;-69
2023/06/11 20:29:42;;;;;;;10.32;5.32;;;;;;;;;;10062152;28;20075;-69
2023/06/11 20:34:38;;;;;;;15.32;5.28;;;;;;;;;;10065172;28;20626;-70
2023/06/11 20:39:34;;;;;;;11.52;5.45;;;;;;;;;;10069590;28;20047;-70
2023/06/11 20:44:31;;;;;;;8.65;5.45;;;;;;;;;;10063787;28;20050;-70
2023/06/11 20:49:27;;;;;;;8.40;5.03;;;;;;;;;;10066548;28;20067;-70
2023/06/11 20:54:23;;;;;;;8.50;5.55;;;;;;;;;;10069575;28;20047;-70
2023/06/11 20:59:20;;;;;;;7.90;5.10;;;;;;;;;;10070843;28;20395;-70
2023/06/11 21:04:16;;;;;;;8.25;5.50;;;;;;;;;;10063334;28;20113;-70
2023/06/11 21:09:12;;;;;;;8.65;5.22;;;;;;;;;;10072317;28;20806;-70
2023/06/11 21:14:09;;;;;;;7.32;5.55;;;;;;;;;;10065752;28;20066;-70
2023/06/11 21:19:10;;;;;;;12.27;5.00;;;;;;;;;;10073094;28;20059;-71
2023/06/11 21:24:06;;;;;;;13.32;5.40;;;;;;;;;;10083727;28;20043;-71
2023/06/11 21:29:04;;;;;;;7.03;5.40;;;;;;;;;;10071222;28;20059;-72
2023/06/11 21:34:01;;;;;;;7.63;5.57;;;;;;;;;;10067786;28;20047;-70
2023/06/11 21:38:58;;;;;;;8.80;5.32;;;;;;;;;;10065050;28;20138;-71
2023/06/11 21:43:55;;;;;;;9.70;5.68;;;;;;;;;;10064961;28;20043;-71
2023/06/11 21:48:51;;;;;;;9.55;5.63;;;;;;;;;;10093496;28;20051;-70
2023/06/11 21:53:47;;;;;;;8.70;5.63;;;;;;;;;;10106052;28;20129;-70
2023/06/11 21:58:44;;;;;;;9.20;6.03;;;;;;;;;;10103264;28;20053;-70
2023/06/11 22:03:40;;;;;;;7.63;4.88;;;;;;;;;;10095166;28;20062;-70
2023/06/11 22:08:37;;;;;;;9.15;6.20;;;;;;;;;;10095302;28;20046;-69
2023/06/11 22:13:33;;;;;;;7.53;4.90;;;;;;;;;;10088867;28;20430;-70
2023/06/11 22:18:32;;;;;;;13.32;6.05;;;;;;;;;;10106121;28;20473;-69
2023/06/11 22:23:29;;;;;;;9.82;5.15;;;;;;;;;;10095806;28;20043;-69
2023/06/11 22:28:44;;;;;;;5.97;5.03;;;;;;;;;;10097081;28;20540;-71
2023/06/11 22:33:40;;;;;;;11.70;5.93;;;;;;;;;;10102793;28;20053;-71
2023/06/11 22:38:37;;;;;;;11.93;6.15;;;;;;;;;;10097259;28;20043;-70
2023/06/11 22:43:36;;;;;;;7.85;4.78;;;;;;;;;;10093635;28;20054;-71
2023/06/11 22:48:32;;;;;;;7.78;4.80;;;;;;;;;;10093525;28;20058;-70
2023/06/11 22:53:29;;;;;;;8.55;5.10;;;;;;;;;;10098983;28;20042;-71
2023/06/11 22:58:25;;;;;;;8.98;5.40;;;;;;;;;;10092312;28;20089;-71
2023/06/11 23:03:22;;;;;;;7.53;5.07;;;;;;;;;;10098288;28;20050;-70
2023/06/11 23:08:18;;;;;;;9.65;5.43;;;;;;;;;;10091412;28;20038;-70
2023/06/11 23:13:15;;;;;;;6.68;5.40;;;;;;;;;;10093454;28;20047;-69
2023/06/11 23:18:11;;;;;;;12.55;5.88;;;;;;;;;;10094571;28;20527;-69
2023/06/11 23:23:08;;;;;;;7.93;5.45;;;;;;;;;;10092150;28;20039;-69
2023/06/11 23:28:12;;;;;;;10.10;5.50;;;;;;;;;;10091315;28;20070;-70
2023/06/11 23:33:11;;;;;;;8.30;5.30;;;;;;;;;;10098561;28;20489;-70
2023/06/11 23:38:07;;;;;;;8.43;4.75;;;;;;;;;;10097204;28;20042;-70
2023/06/11 23:43:04;;;;;;;12.27;5.93;;;;;;;;;;10101400;28;20043;-71
2023/06/11 23:48:01;;;;;;;6.82;5.40;;;;;;;;;;10100895;28;20492;-71
2023/06/11 23:52:57;;;;;;;7.95;5.00;;;;;;;;;;10093890;28;20050;-71
2023/06/11 23:58:06;;;;;;;9.38;4.85;;;;;;;;;;10087125;28;20422;-71
